Time;durP1;ratioP1;P1;durP2;ratioP2;P2;SDS_P1;SDS_P2;PMS_P1;PMS_P2;Temp;Humidity;BMP_temperature;BMP_pressure;BME280_temperature;BME280_humidity;BME280_pressure;Samples;Min_cycle;Max_cycle;Signal;HPM_P1;HPM_P2
2022/04/06 00:01:18;;;;;;;8.45;4.00;;;;;;;9.64;72.89;99913.63;4943185;28;20031;-69
2022/04/06 00:03:44;;;;;;;8.30;3.67;;;;;;;9.54;74.11;99915.53;4971788;28;20025;-71
2022/04/06 00:06:09;;;;;;;6.85;3.28;;;;;;;9.61;73.72;99906.84;4969569;28;20924;-71
2022/04/06 00:08:35;;;;;;;11.48;3.72;;;;;;;9.60;73.45;99905.19;4953817;28;20044;-71
2022/04/06 00:11:00;;;;;;;7.47;3.35;;;;;;;9.54;73.95;99908.44;4951957;28;20033;-71
2022/04/06 00:13:26;;;;;;;9.65;3.42;;;;;;;9.54;74.13;99902.31;4958442;28;20026;-70
2022/04/06 00:15:51;;;;;;;7.38;3.65;;;;;;;9.66;72.63;99916.13;4949785;28;20034;-69
2022/04/06 00:18:16;;;;;;;7.22;3.28;;;;;;;9.69;72.37;99900.00;4945195;28;20010;-68
2022/04/06 00:20:42;;;;;;;9.30;3.75;;;;;;;9.62;72.98;99900.59;4957593;28;20057;-72
2022/04/06 00:23:08;;;;;;;10.55;3.53;;;;;;;9.66;73.09;99901.13;4952957;28;20935;-72
2022/04/06 00:25:34;;;;;;;8.38;3.20;;;;;;;9.71;72.28;99892.72;4930059;28;20113;-72
2022/04/06 00:27:59;;;;;;;6.35;3.42;;;;;;;9.69;73.01;99892.06;4957018;28;20097;-72
2022/04/06 00:30:24;;;;;;;10.85;3.88;;;;;;;9.73;72.32;99891.59;4959604;28;20014;-72
2022/04/06 00:32:50;;;;;;;10.13;3.67;;;;;;;9.68;72.69;99890.41;4954485;28;20020;-73
2022/04/06 00:35:32;;;;;;;7.15;3.75;;;;;;;9.67;72.89;99888.72;4947538;28;20186;-73
2022/04/06 00:38:02;;;;;;;9.38;3.63;;;;;;;9.70;71.94;99896.34;4960284;28;20027;-72
2022/04/06 00:40:27;;;;;;;7.82;3.47;;;;;;;9.59;72.74;99900.06;4944063;28;20023;-72
2022/04/06 00:42:53;;;;;;;9.45;3.78;;;;;;;9.58;71.97;99883.38;4955319;28;20046;-69
2022/04/06 00:45:22;;;;;;;8.55;3.80;;;;;;;9.47;72.46;99886.25;4933847;28;20068;-69
2022/04/06 00:47:47;;;;;;;7.25;3.38;;;;;;;9.51;72.80;99886.78;4936500;28;20042;-71
2022/04/06 00:50:13;;;;;;;8.73;3.65;;;;;;;9.49;73.13;99881.66;4939153;28;20037;-69
2022/04/06 00:52:39;;;;;;;7.28;3.38;;;;;;;9.53;71.82;99885.66;4958517;28;20517;-69
2022/04/06 00:55:05;;;;;;;7.25;3.30;;;;;;;9.53;71.94;99880.38;4947387;28;20547;-72
2022/04/06 00:57:30;;;;;;;5.82;2.90;;;;;;;9.53;72.20;99879.53;4943397;28;20295;-72
2022/04/06 00:59:56;;;;;;;5.22;3.05;;;;;;;9.48;73.62;99882.63;4963972;28;20045;-71
2022/04/06 01:02:21;;;;;;;7.60;3.22;;;;;;;9.55;72.02;99878.41;4958217;28;20038;-70
2022/04/06 01:04:46;;;;;;;7.43;3.28;;;;;;;9.47;72.04;99870.41;4956551;28;20901;-71
2022/04/06 01:07:12;;;;;;;7.22;3.10;;;;;;;9.49;72.01;99873.72;4970926;28;20037;-70
2022/04/06 01:09:37;;;;;;;6.88;3.50;;;;;;;9.41;72.95;99868.38;4968096;28;20125;-70
2022/04/06 01:12:03;;;;;;;7.05;3.22;;;;;;;9.47;72.39;99864.28;4969577;28;20547;-68
2022/04/06 01:14:28;;;;;;;5.13;2.75;;;;;;;9.41;72.37;99865.72;4969330;28;20030;-71
2022/04/06 01:16:58;;;;;;;7.13;3.10;;;;;;;9.34;72.69;99862.03;4969288;28;20615;-72
2022/04/06 01:19:23;;;;;;;7.22;2.75;;;;;;;9.48;71.79;99861.50;4969572;28;20034;-71
2022/04/06 01:21:49;;;;;;;10.23;3.45;;;;;;;9.32;72.67;99866.63;4960881;28;20033;-70
2022/04/06 01:24:14;;;;;;;5.97;3.00;;;;;;;9.28;72.77;99861.66;4962941;28;20018;-69
2022/04/06 01:26:39;;;;;;;5.35;2.67;;;;;;;9.31;72.77;99859.66;4950970;28;20007;-68
2022/04/06 01:29:05;;;;;;;6.85;2.85;;;;;;;9.28;72.40;99860.84;4952027;28;20042;-71
2022/04/06 01:31:30;;;;;;;7.65;2.88;;;;;;;9.32;72.63;99853.41;4958806;28;20630;-72
2022/04/06 01:33:55;;;;;;;5.50;2.35;;;;;;;9.40;71.63;99854.31;4952309;28;20022;-71
2022/04/06 01:36:21;;;;;;;5.97;2.75;;;;;;;9.35;72.47;99856.59;4958583;28;20007;-71
2022/04/06 01:38:46;;;;;;;7.32;2.90;;;;;;;9.39;71.94;99862.41;4954993;28;20023;-69
2022/04/06 01:41:12;;;;;;;9.35;3.08;;;;;;;9.29;72.50;99854.56;4951958;28;20022;-71
2022/04/06 01:43:37;;;;;;;4.70;2.63;;;;;;;9.30;72.61;99863.31;4952167;28;20019;-71
2022/04/06 01:46:02;;;;;;;7.00;2.85;;;;;;;9.38;71.78;99855.47;4953363;28;20029;-71
2022/04/06 01:48:28;;;;;;;5.68;2.40;;;;;;;9.35;72.20;99850.47;4938729;28;21021;-72
2022/04/06 01:53:38;;;;;;;5.55;2.70;;;;;;;9.25;72.21;99853.19;4950752;28;20018;-71
2022/04/06 01:56:03;;;;;;;5.50;2.58;;;;;;;9.30;71.83;99847.47;4932587;28;20019;-71
2022/04/06 01:58:29;;;;;;;5.63;2.42;;;;;;;9.36;71.35;99846.84;4935306;28;20143;-70
2022/04/06 02:00:54;;;;;;;9.38;3.03;;;;;;;9.37;71.85;99841.44;4959358;28;20014;-70
2022/04/06 02:03:19;;;;;;;6.07;2.80;;;;;;;9.33;72.06;99848.00;4954323;28;20014;-71
2022/04/06 02:05:46;;;;;;;7.50;2.80;;;;;;;9.32;72.37;99840.22;4953530;28;21029;-73
2022/04/06 02:08:11;;;;;;;8.55;3.47;;;;;;;9.31;72.26;99833.28;4953677;28;20038;-72
2022/04/06 02:10:39;;;;;;;8.05;3.60;;;;;;;9.32;72.16;99834.94;4957317;28;20028;-69
2022/04/06 02:13:05;;;;;;;11.75;3.63;;;;;;;9.27;72.40;99832.75;4934657;28;20268;-71
2022/04/06 02:15:30;;;;;;;10.63;3.95;;;;;;;9.35;72.27;99842.56;4951769;28;20243;-72
2022/04/06 02:17:55;;;;;;;10.15;3.55;;;;;;;9.36;71.99;99831.03;4936694;28;20734;-71
2022/04/06 02:20:21;;;;;;;8.98;3.15;;;;;;;9.47;71.41;99833.44;4947498;28;20022;-71
2022/04/06 02:22:46;;;;;;;5.72;3.00;;;;;;;9.37;72.29;99837.97;4963880;28;20181;-69
2022/04/06 02:25:14;;;;;;;7.43;3.33;;;;;;;9.34;72.81;99828.53;4948383;28;20468;-69
2022/04/06 02:27:48;;;;;;;8.30;3.20;;;;;;;9.30;72.19;99832.47;4959519;28;20042;-71
2022/04/06 02:30:13;;;;;;;7.40;3.30;;;;;;;9.38;71.68;99829.06;4964355;28;20011;-69
2022/04/06 02:32:39;;;;;;;9.07;3.95;;;;;;;9.32;71.74;99825.22;4981176;28;20080;-71
2022/04/06 02:35:04;;;;;;;9.15;4.20;;;;;;;9.32;72.13;99833.16;4933655;28;20018;-71
2022/04/06 02:37:30;;;;;;;10.00;4.47;;;;;;;9.26;72.97;99820.53;4950255;28;20556;-71
2022/04/06 02:39:55;;;;;;;12.20;4.20;;;;;;;9.21;72.69;99825.47;4936407;28;20139;-71
2022/04/06 02:42:20;;;;;;;8.77;4.07;;;;;;;9.24;72.55;99828.59;4958570;28;20584;-70
2022/04/06 02:44:46;;;;;;;9.80;3.83;;;;;;;9.31;72.50;99820.06;4964521;28;20127;-70
2022/04/06 02:47:11;;;;;;;11.77;4.43;;;;;;;9.30;72.55;99821.91;4957118;28;20038;-69
2022/04/06 02:49:36;;;;;;;8.35;4.15;;;;;;;9.37;72.05;99811.56;4942786;28;20015;-69
2022/04/06 02:52:02;;;;;;;10.23;3.70;;;;;;;9.38;71.50;99818.50;4959487;28;20889;-71
2022/04/06 02:54:27;;;;;;;6.75;3.55;;;;;;;9.34;71.66;99823.25;4968423;28;20415;-70
2022/04/06 02:56:53;;;;;;;7.38;3.80;;;;;;;9.27;71.90;99817.75;4952139;28;20018;-73
2022/04/06 02:59:18;;;;;;;11.50;4.03;;;;;;;9.32;72.31;99819.09;4952846;28;20080;-70
2022/04/06 03:01:43;;;;;;;9.68;3.63;;;;;;;9.31;71.74;99814.78;4958475;28;20038;-68
2022/04/06 03:04:09;;;;;;;8.45;3.67;;;;;;;9.25;72.29;99814.44;4967080;28;20851;-68
2022/04/06 03:06:35;;;;;;;4.07;2.70;;;;;;;9.26;71.55;99812.63;4968843;28;20595;-71
2022/04/06 03:09:00;;;;;;;8.68;3.03;;;;;;;9.25;71.77;99813.59;4959809;28;20041;-71
2022/04/06 03:11:26;;;;;;;7.88;3.10;;;;;;;9.24;72.24;99812.78;4946554;28;20021;-72
2022/04/06 03:13:52;;;;;;;4.80;3.03;;;;;;;9.25;71.58;99814.44;4948589;28;20026;-69
2022/04/06 03:16:17;;;;;;;5.25;3.67;;;;;;;9.27;71.36;99811.66;4954493;28;20385;-69
2022/04/06 03:18:42;;;;;;;8.32;3.33;;;;;;;9.22;71.91;99804.19;4945434;28;20469;-70
2022/04/06 03:21:08;;;;;;;6.28;3.20;;;;;;;9.31;71.53;99812.16;4959442;28;20519;-71
2022/04/06 03:23:33;;;;;;;5.25;3.00;;;;;;;9.25;71.76;99809.16;4965121;28;20009;-71
2022/04/06 03:25:58;;;;;;;5.82;2.92;;;;;;;9.18;72.36;99799.34;4945256;28;20071;-71
2022/04/06 03:28:24;;;;;;;4.97;3.10;;;;;;;9.23;71.73;99800.53;4951457;28;20050;-71
2022/04/06 03:30:49;;;;;;;6.38;2.95;;;;;;;9.30;71.65;99794.69;4945326;28;20938;-69
2022/04/06 03:33:15;;;;;;;6.90;3.28;;;;;;;9.17;72.54;99801.16;4971079;28;20277;-71
2022/04/06 03:35:41;;;;;;;7.40;3.13;;;;;;;9.20;71.88;99790.28;4971029;28;20599;-71
2022/04/06 03:38:06;;;;;;;5.53;2.78;;;;;;;9.19;71.94;99788.63;4951658;28;20030;-71
2022/04/06 03:40:31;;;;;;;8.10;3.20;;;;;;;9.13;72.64;99794.53;4952651;28;20014;-71
2022/04/06 03:42:57;;;;;;;6.63;2.88;;;;;;;9.17;72.23;99790.59;4966053;28;20022;-71
2022/04/06 03:45:23;;;;;;;9.73;3.20;;;;;;;9.10;72.74;99779.81;4928926;28;20026;-69
2022/04/06 03:47:48;;;;;;;8.68;3.28;;;;;;;9.18;72.57;99791.41;4949428;28;20829;-68
2022/04/06 03:50:13;;;;;;;9.00;3.15;;;;;;;9.21;72.36;99786.69;4958385;28;20649;-71
2022/04/06 03:52:39;;;;;;;6.82;3.13;;;;;;;9.10;72.58;99792.19;4931977;28;20521;-72
2022/04/06 03:55:07;;;;;;;8.48;3.15;;;;;;;9.02;72.72;99798.19;4950236;28;20015;-72
2022/04/06 03:57:32;;;;;;;7.82;3.20;;;;;;;9.15;72.00;99803.13;4955626;28;20056;-69
2022/04/06 03:59:58;;;;;;;4.47;3.00;;;;;;;9.18;71.52;99810.75;4960253;28;20027;-71
2022/04/06 04:02:24;;;;;;;10.07;3.47;;;;;;;9.04;71.65;99806.81;4949680;28;20850;-70
2022/04/06 04:04:49;;;;;;;7.90;3.70;;;;;;;9.16;71.44;99815.31;4964048;28;20029;-71
2022/04/06 04:07:21;;;;;;;7.45;3.35;;;;;;;9.11;71.60;99804.41;4951076;28;20023;-71
2022/04/06 04:09:46;;;;;;;5.97;3.50;;;;;;;9.09;71.66;99807.22;4933692;28;20118;-70
2022/04/06 04:12:12;;;;;;;7.90;3.80;;;;;;;9.13;70.91;99799.81;4941443;28;20204;-69
2022/04/06 04:14:37;;;;;;;9.00;3.42;;;;;;;9.02;71.84;99797.38;4934250;28;19999;-71
2022/04/06 04:17:03;;;;;;;7.78;3.38;;;;;;;9.00;72.59;99794.91;4939950;28;20224;-70
2022/04/06 04:19:28;;;;;;;5.63;2.78;;;;;;;9.02;71.13;99792.91;4941535;28;20484;-71
2022/04/06 04:21:54;;;;;;;4.35;2.70;;;;;;;9.09;70.73;99791.38;4940738;28;20037;-71
2022/04/06 04:24:19;;;;;;;6.93;3.28;;;;;;;9.01;71.35;99790.44;4929292;28;20042;-72
2022/04/06 04:26:44;;;;;;;7.13;3.00;;;;;;;9.04;70.99;99785.69;4971558;28;20313;-69
2022/04/06 04:29:10;;;;;;;8.15;3.22;;;;;;;9.07;71.17;99789.84;4961781;28;20041;-70
2022/04/06 04:31:35;;;;;;;7.47;3.15;;;;;;;9.13;70.21;99793.69;4960437;28;20487;-71
2022/04/06 04:34:01;;;;;;;8.60;3.45;;;;;;;9.07;69.97;99784.56;4965488;28;20644;-72
2022/04/06 04:36:27;;;;;;;6.72;3.10;;;;;;;9.11;69.50;99785.94;4945214;28;20042;-71
2022/04/06 04:38:52;;;;;;;8.07;3.05;;;;;;;9.10;69.92;99784.28;4952698;28;20026;-71
2022/04/06 04:41:18;;;;;;;6.22;3.15;;;;;;;9.17;69.64;99790.59;4922771;28;20883;-70
2022/04/06 04:43:43;;;;;;;5.38;2.83;;;;;;;9.09;69.14;99787.88;4945692;28;20031;-70
2022/04/06 04:46:08;;;;;;;10.10;3.60;;;;;;;9.14;68.75;99777.72;4960761;28;20018;-70
2022/04/06 04:48:34;;;;;;;6.15;3.13;;;;;;;9.24;68.57;99794.28;4952165;28;20207;-70
2022/04/06 04:50:59;;;;;;;8.52;3.08;;;;;;;9.20;68.21;99774.44;4960728;28;20554;-70
2022/04/06 04:53:25;;;;;;;4.43;3.38;;;;;;;9.23;68.20;99783.88;4964470;28;20026;-70
2022/04/06 04:55:50;;;;;;;10.75;3.78;;;;;;;9.13;69.16;99778.69;4955951;28;21127;-70
2022/04/06 04:58:16;;;;;;;8.23;3.88;;;;;;;9.16;69.24;99764.34;4953252;28;20585;-73
2022/04/06 05:00:41;;;;;;;5.53;3.53;;;;;;;9.20;68.98;99784.19;4948240;28;20341;-69
2022/04/06 05:03:08;;;;;;;8.25;3.42;;;;;;;9.09;69.96;99777.31;4961679;28;20042;-72
2022/04/06 05:05:33;;;;;;;7.47;3.13;;;;;;;9.05;69.19;99770.69;4951638;28;20021;-71
2022/04/06 05:07:59;;;;;;;7.47;3.55;;;;;;;9.10;68.38;99789.53;4956646;28;20039;-69
2022/04/06 05:10:25;;;;;;;9.63;3.33;;;;;;;9.13;68.13;99772.59;4965253;28;20022;-72
2022/04/06 05:12:50;;;;;;;5.90;3.35;;;;;;;9.00;69.11;99771.16;4957192;28;20773;-69
2022/04/06 05:15:15;;;;;;;6.10;3.17;;;;;;;9.10;68.77;99769.25;4938495;28;20019;-72
2022/04/06 05:17:41;;;;;;;5.25;3.15;;;;;;;9.13;68.17;99762.84;4974006;28;20018;-71
2022/04/06 05:20:10;;;;;;;4.65;2.80;;;;;;;9.10;68.64;99763.97;4969988;28;20416;-73
2022/04/06 05:22:35;;;;;;;6.15;2.83;;;;;;;9.18;69.00;99770.31;4964567;28;20058;-71
2022/04/06 05:25:04;;;;;;;7.03;2.60;;;;;;;9.12;68.69;99774.38;4955376;28;20038;-71
2022/04/06 05:27:32;;;;;;;3.90;2.58;;;;;;;9.13;69.13;99772.59;4955649;28;20038;-72
2022/04/06 05:29:57;;;;;;;4.85;2.75;;;;;;;9.03;69.76;99772.66;4956029;28;20019;-71
2022/04/06 05:32:23;;;;;;;4.43;2.33;;;;;;;9.05;69.62;99781.25;4958444;28;20013;-71
2022/04/06 05:34:49;;;;;;;8.40;2.70;;;;;;;9.11;69.59;99775.38;4967033;28;20347;-70
2022/04/06 05:37:14;;;;;;;6.70;2.53;;;;;;;9.18;69.81;99775.59;4958946;28;20039;-69
2022/04/06 05:39:40;;;;;;;4.55;2.22;;;;;;;9.02;69.91;99778.91;4948153;28;20368;-71
2022/04/06 05:42:05;;;;;;;5.72;2.75;;;;;;;9.08;69.38;99780.94;4965317;28;20882;-69
2022/04/06 05:44:30;;;;;;;6.70;2.67;;;;;;;8.96;70.37;99779.53;4994792;28;20101;-72
2022/04/06 05:46:56;;;;;;;3.90;2.38;;;;;;;8.93;70.95;99781.47;4964961;28;20006;-71
2022/04/06 05:49:21;;;;;;;9.70;3.30;;;;;;;9.04;70.21;99790.13;4961359;28;20049;-71
2022/04/06 05:51:48;;;;;;;5.72;3.25;;;;;;;8.99;70.36;99782.69;4960983;28;20475;-71
2022/04/06 05:54:13;;;;;;;8.85;2.83;;;;;;;9.07;70.40;99788.03;4966875;28;20046;-70
2022/04/06 05:56:38;;;;;;;5.05;2.80;;;;;;;9.05;69.68;99775.97;4965477;28;20018;-73
2022/04/06 05:59:04;;;;;;;7.72;2.28;;;;;;;8.98;70.58;99774.91;4955940;28;20050;-72
2022/04/06 06:01:29;;;;;;;8.95;2.22;;;;;;;9.10;69.59;99774.53;4952115;28;20014;-71
2022/04/06 06:03:55;;;;;;;4.93;2.40;;;;;;;9.02;69.73;99776.28;4948438;28;20026;-71
2022/04/06 06:06:20;;;;;;;2.55;2.00;;;;;;;8.99;69.81;99776.56;4967474;28;20027;-72
2022/04/06 06:08:47;;;;;;;4.15;2.30;;;;;;;9.13;68.60;99768.13;4963771;28;20030;-72
2022/04/06 06:11:12;;;;;;;3.70;2.03;;;;;;;9.02;69.25;99776.28;4966343;28;20044;-68
2022/04/06 06:13:37;;;;;;;4.05;2.10;;;;;;;9.00;69.38;99773.78;4953709;28;20030;-72
2022/04/06 06:16:04;;;;;;;6.43;2.22;;;;;;;9.03;69.12;99780.56;4987561;28;20249;-72
2022/04/06 06:18:29;;;;;;;4.53;2.03;;;;;;;9.02;68.53;99774.44;4965566;28;20109;-71
2022/04/06 06:21:00;;;;;;;7.63;2.25;;;;;;;9.03;68.40;99772.66;4972956;28;20018;-71
2022/04/06 06:23:26;;;;;;;3.72;1.88;;;;;;;8.96;68.20;99771.59;4963015;28;20041;-71
2022/04/06 06:25:51;;;;;;;4.07;2.28;;;;;;;9.04;68.17;99769.03;4948967;28;20018;-72
2022/04/06 06:28:17;;;;;;;3.53;2.03;;;;;;;9.00;68.13;99775.59;4965592;28;20040;-69
2022/04/06 06:30:42;;;;;;;3.58;2.17;;;;;;;9.14;67.67;99764.50;4963403;28;20988;-72
2022/04/06 06:33:08;;;;;;;5.03;2.00;;;;;;;8.99;67.57;99771.31;4975323;28;20166;-69
2022/04/06 06:35:33;;;;;;;5.57;2.10;;;;;;;9.01;67.42;99764.06;4982112;28;20015;-71
2022/04/06 06:37:58;;;;;;;7.13;2.33;;;;;;;9.10;67.06;99774.53;4982030;28;20824;-69
2022/04/06 06:40:25;;;;;;;3.10;1.63;;;;;;;9.04;67.10;99766.38;4956116;28;20006;-72
2022/04/06 06:42:51;;;;;;;4.65;1.80;;;;;;;9.16;66.82;99770.47;4966168;28;20225;-71
2022/04/06 06:45:16;;;;;;;4.35;1.75;;;;;;;9.06;67.45;99764.44;4957752;28;20802;-69
2022/04/06 06:47:42;;;;;;;2.50;1.52;;;;;;;9.11;66.64;99754.28;4949319;28;20035;-72
2022/04/06 06:50:08;;;;;;;4.40;2.10;;;;;;;9.15;67.02;99765.34;4952216;28;20022;-69
2022/04/06 06:52:37;;;;;;;4.70;1.95;;;;;;;9.18;66.52;99763.22;4975551;28;20018;-71
2022/04/06 06:55:05;;;;;;;5.43;2.28;;;;;;;9.13;66.50;99757.56;4969558;28;20022;-71
2022/04/06 06:57:31;;;;;;;4.82;1.80;;;;;;;9.15;66.43;99758.25;4945403;28;20088;-72
2022/04/06 06:59:56;;;;;;;4.38;1.90;;;;;;;9.17;65.93;99764.22;4973999;28;20101;-72
2022/04/06 07:02:21;;;;;;;2.58;1.77;;;;;;;9.12;66.02;99761.19;4964397;28;20041;-69
2022/04/06 07:04:47;;;;;;;4.40;1.80;;;;;;;9.17;65.49;99752.84;4997235;28;20014;-71
2022/04/06 07:07:12;;;;;;;8.23;2.30;;;;;;;9.06;65.61;99767.91;4995309;28;20011;-72
2022/04/06 07:09:38;;;;;;;6.38;2.25;;;;;;;9.19;65.73;99762.22;4977863;28;20022;-72
2022/04/06 07:12:03;;;;;;;4.00;1.80;;;;;;;9.23;66.02;99755.66;4982251;28;20614;-71
2022/04/06 07:14:29;;;;;;;4.90;2.20;;;;;;;9.31;65.44;99756.72;4973658;28;20025;-72
2022/04/06 07:16:54;;;;;;;4.10;1.95;;;;;;;9.30;65.19;99755.06;4985823;28;20782;-72
2022/04/06 07:19:20;;;;;;;3.63;2.30;;;;;;;9.36;65.40;99754.44;4984272;28;20336;-71
2022/04/06 07:21:46;;;;;;;8.10;2.33;;;;;;;9.31;65.74;99746.16;4984298;28;20243;-73
2022/04/06 07:24:11;;;;;;;5.30;2.15;;;;;;;9.35;66.02;99736.94;4968192;28;20847;-69
2022/04/06 07:26:37;;;;;;;3.67;2.20;;;;;;;9.39;66.10;99735.66;4965892;28;20054;-73
2022/04/06 07:29:02;;;;;;;3.63;2.10;;;;;;;9.43;65.75;99745.78;4940246;28;20053;-73
2022/04/06 07:31:27;;;;;;;3.53;2.53;;;;;;;9.59;64.78;99729.19;4957546;28;20209;-73
2022/04/06 07:33:53;;;;;;;3.65;2.38;;;;;;;9.55;64.93;99737.59;4963713;28;20749;-73
2022/04/06 07:36:18;;;;;;;8.63;2.40;;;;;;;9.58;64.93;99734.66;4964630;28;20022;-71
2022/04/06 07:38:43;;;;;;;5.60;2.15;;;;;;;9.53;64.38;99732.47;4965060;28;20685;-72
2022/04/06 07:41:09;;;;;;;3.72;2.00;;;;;;;9.61;64.57;99729.88;4952058;28;20022;-71
2022/04/06 07:43:34;;;;;;;4.57;1.80;;;;;;;9.59;64.01;99725.75;4976646;28;20875;-72
2022/04/06 07:46:00;;;;;;;2.53;1.95;;;;;;;9.63;64.18;99730.56;4971126;28;20022;-70
2022/04/06 07:48:27;;;;;;;3.17;1.80;;;;;;;9.56;63.49;99728.66;4969753;28;20042;-72
2022/04/06 07:50:53;;;;;;;3.33;1.83;;;;;;;9.61;64.89;99727.22;4950766;28;20390;-72
2022/04/06 07:53:19;;;;;;;4.43;2.10;;;;;;;9.61;63.61;99726.41;4954869;28;20011;-69
2022/04/06 07:55:46;;;;;;;3.08;1.65;;;;;;;9.53;63.72;99724.56;4972409;28;20013;-72
2022/04/06 07:58:12;;;;;;;4.97;1.92;;;;;;;9.66;63.85;99731.22;4975031;28;20110;-72
2022/04/06 08:00:37;;;;;;;2.10;1.42;;;;;;;9.68;63.57;99743.28;4962922;28;20144;-69
2022/04/06 08:03:02;;;;;;;2.63;1.50;;;;;;;9.57;64.19;99736.44;4952690;28;20065;-72
2022/04/06 08:05:28;;;;;;;4.10;1.40;;;;;;;9.61;63.49;99731.69;4976841;28;20026;-73
2022/04/06 08:07:54;;;;;;;2.88;1.40;;;;;;;9.64;63.07;99728.72;4976956;28;20562;-72
2022/04/06 08:10:19;;;;;;;3.45;1.40;;;;;;;9.59;62.99;99729.19;4985864;28;20103;-71
2022/04/06 08:12:46;;;;;;;2.85;1.55;;;;;;;9.72;62.40;99738.53;4966519;28;20030;-69
2022/04/06 08:15:11;;;;;;;5.45;1.77;;;;;;;9.57;63.23;99730.34;4971797;28;20682;-72
2022/04/06 08:17:44;;;;;;;2.45;1.50;;;;;;;9.63;63.26;99730.56;4972245;28;20092;-72
2022/04/06 08:20:13;;;;;;;5.32;2.40;;;;;;;9.52;64.08;99741.38;4963172;28;20034;-72
2022/04/06 08:22:43;;;;;;;1.95;1.42;;;;;;;9.62;63.23;99741.28;4959966;28;20077;-70
2022/04/06 08:25:08;;;;;;;4.93;2.03;;;;;;;9.61;63.19;99740.44;4977892;28;20886;-69
2022/04/06 08:27:39;;;;;;;3.58;1.77;;;;;;;9.68;62.90;99750.41;4961133;28;20042;-72
2022/04/06 08:30:05;;;;;;;2.70;1.30;;;;;;;9.59;62.91;99752.16;4953687;28;20118;-69
2022/04/06 08:32:30;;;;;;;2.05;1.30;;;;;;;9.72;61.90;99751.75;4967178;28;20103;-72
2022/04/06 08:34:56;;;;;;;4.30;1.38;;;;;;;9.69;60.72;99744.13;4948454;28;20022;-69
2022/04/06 08:37:21;;;;;;;4.53;1.65;;;;;;;9.56;61.41;99748.00;4960345;28;20072;-71
2022/04/06 08:39:46;;;;;;;4.15;1.50;;;;;;;9.61;61.74;99740.44;4968554;28;20037;-72
2022/04/06 08:42:12;;;;;;;1.65;1.50;;;;;;;9.56;61.92;99741.88;4958324;28;20019;-72
2022/04/06 08:44:38;;;;;;;4.82;1.33;;;;;;;9.56;60.82;99744.53;4951446;28;20749;-71
2022/04/06 08:47:04;;;;;;;5.20;1.50;;;;;;;9.64;60.36;99739.28;4952861;28;20142;-72
2022/04/06 08:49:29;;;;;;;4.10;1.30;;;;;;;9.60;61.01;99733.50;4966295;28;20338;-72
2022/04/06 08:51:55;;;;;;;4.30;1.15;;;;;;;9.61;60.75;99748.34;4963920;28;20026;-71
2022/04/06 08:54:20;;;;;;;3.20;1.40;;;;;;;9.55;60.90;99743.69;4963683;28;20045;-69
2022/04/06 08:56:46;;;;;;;3.30;1.20;;;;;;;9.53;60.44;99743.03;4990005;28;20002;-72
2022/04/06 08:59:12;;;;;;;3.25;1.40;;;;;;;9.42;61.26;99740.66;4992391;28;20111;-72
2022/04/06 09:01:37;;;;;;;2.30;1.20;;;;;;;9.52;61.14;99741.38;4976082;28;20015;-72
2022/04/06 09:04:03;;;;;;;5.65;1.50;;;;;;;9.53;61.39;99737.75;4963577;28;20861;-72
2022/04/06 09:06:32;;;;;;;3.90;1.50;;;;;;;9.65;61.85;99738.31;4965276;28;20122;-73
2022/04/06 09:08:57;;;;;;;5.25;1.80;;;;;;;9.71;60.90;99723.66;4956833;28;20154;-71
2022/04/06 09:11:22;;;;;;;6.00;2.15;;;;;;;9.71;61.48;99731.59;4964931;28;20100;-72
2022/04/06 09:13:56;;;;;;;5.53;2.10;;;;;;;9.73;59.79;99751.59;4979465;28;20022;-70
2022/04/06 09:16:21;;;;;;;4.15;1.35;;;;;;;9.58;60.07;99730.19;4962937;28;20029;-71
2022/04/06 09:18:48;;;;;;;3.15;1.42;;;;;;;9.61;60.14;99736.97;4971386;28;20262;-72
2022/04/06 09:21:16;;;;;;;4.05;1.70;;;;;;;9.62;59.54;99728.88;4962228;28;20014;-70
2022/04/06 09:23:41;;;;;;;5.22;2.10;;;;;;;9.65;59.95;99729.56;4969421;28;20010;-72
2022/04/06 09:26:08;;;;;;;7.13;2.47;;;;;;;9.73;59.16;99732.25;4974560;28;20086;-71
2022/04/06 09:28:37;;;;;;;2.95;2.17;;;;;;;9.79;59.28;99715.78;4987936;28;20050;-69
2022/04/06 09:31:03;;;;;;;2.60;1.75;;;;;;;9.79;59.67;99721.06;4970261;28;20015;-72
2022/04/06 09:33:29;;;;;;;2.15;1.70;;;;;;;9.91;59.22;99709.25;4982465;28;20038;-71
2022/04/06 09:35:55;;;;;;;3.38;1.60;;;;;;;10.21;58.79;99719.41;4987307;28;20472;-71
2022/04/06 09:38:25;;;;;;;3.63;1.40;;;;;;;10.23;57.61;99707.69;4980227;28;20034;-69
2022/04/06 09:41:00;;;;;;;1.55;1.02;;;;;;;10.16;58.51;99703.22;4978637;28;20015;-71
2022/04/06 09:43:27;;;;;;;1.92;1.23;;;;;;;10.26;58.22;99695.97;4956025;28;20612;-71
2022/04/06 09:48:57;;;;;;;2.70;1.40;;;;;;;10.76;56.83;99686.34;4974424;28;20193;-72
2022/04/06 09:51:23;;;;;;;2.53;1.10;;;;;;;10.67;56.45;99676.75;4965641;28;20022;-72
2022/04/06 09:53:49;;;;;;;2.15;1.05;;;;;;;10.72;55.90;99682.41;4958266;28;20034;-71
2022/04/06 09:56:16;;;;;;;4.50;1.13;;;;;;;10.85;55.81;99684.56;4970507;28;20027;-70
2022/04/06 09:58:41;;;;;;;4.43;1.17;;;;;;;10.95;54.99;99675.44;4949916;28;20123;-72
2022/04/06 10:01:06;;;;;;;3.67;1.15;;;;;;;11.08;55.02;99688.16;4963661;28;20495;-71
2022/04/06 10:03:32;;;;;;;7.70;1.17;;;;;;;11.13;54.79;99677.09;4961904;28;20500;-71
2022/04/06 10:05:58;;;;;;;5.15;1.20;;;;;;;10.76;55.26;99670.47;4973031;28;20431;-71
2022/04/06 10:08:23;;;;;;;2.58;1.30;;;;;;;10.75;55.63;99674.13;4947349;28;20099;-70
2022/04/06 10:10:51;;;;;;;2.47;0.98;;;;;;;10.59;55.86;99674.91;4965966;28;20246;-71
2022/04/06 10:13:17;;;;;;;3.85;1.27;;;;;;;10.62;56.27;99685.19;4969188;28;20019;-71
2022/04/06 10:15:42;;;;;;;3.38;1.52;;;;;;;10.76;55.81;99676.59;4934444;28;20018;-71
2022/04/06 10:18:07;;;;;;;2.85;1.20;;;;;;;10.83;55.62;99674.13;4955870;28;20011;-73
2022/04/06 10:20:38;;;;;;;3.40;1.30;;;;;;;10.81;56.37;99684.84;4966117;28;20007;-72
2022/04/06 10:23:18;;;;;;;1.60;0.90;;;;;;;10.78;56.69;99681.72;4959295;28;20760;-73
2022/04/06 10:26:20;;;;;;;3.65;1.38;;;;;;;10.72;56.57;99671.81;4957751;28;20015;-70
2022/04/06 10:28:48;;;;;;;2.60;1.08;;;;;;;10.75;57.01;99676.78;4973794;28;20088;-73
2022/04/06 10:31:19;;;;;;;2.15;1.00;;;;;;;10.86;55.88;99668.50;4950827;28;20014;-72
2022/04/06 10:33:45;;;;;;;2.92;1.13;;;;;;;10.78;56.37;99663.22;4949528;28;20091;-70
2022/04/06 10:36:26;;;;;;;3.47;1.40;;;;;;;10.71;56.41;99673.63;4953267;28;20117;-73
2022/04/06 10:39:06;;;;;;;5.28;1.10;;;;;;;10.67;56.42;99660.88;4958972;28;20068;-73
2022/04/06 10:41:41;;;;;;;3.83;1.30;;;;;;;10.53;56.86;99662.34;4958186;28;20010;-70
2022/04/06 10:44:08;;;;;;;3.20;1.10;;;;;;;10.71;56.31;99656.94;4957842;28;20011;-70
2022/04/06 10:46:40;;;;;;;1.48;1.17;;;;;;;10.71;56.68;99652.44;4945112;28;20122;-74
2022/04/06 10:49:05;;;;;;;3.03;1.30;;;;;;;10.53;57.67;99654.41;4974930;28;20046;-72
2022/04/06 10:51:35;;;;;;;2.87;1.40;;;;;;;10.55;57.78;99658.56;4968106;28;20034;-72
2022/04/06 10:54:12;;;;;;;5.30;1.50;;;;;;;10.69;57.73;99665.03;4939584;28;20037;-73
2022/04/06 10:56:46;;;;;;;2.55;1.20;;;;;;;10.71;57.32;99662.22;4957272;28;20087;-69
2022/04/06 10:59:23;;;;;;;2.42;1.23;;;;;;;10.58;57.94;99642.34;4964637;28;20060;-71
2022/04/06 11:01:49;;;;;;;3.58;1.23;;;;;;;10.63;58.10;99649.78;4965668;28;20146;-70
2022/04/06 11:04:24;;;;;;;3.58;1.38;;;;;;;10.57;58.45;99656.56;4939723;28;20033;-71
2022/04/06 11:06:56;;;;;;;1.83;1.67;;;;;;;10.60;58.63;99656.25;4956742;28;20041;-72
2022/04/06 11:12:19;;;;;;;2.72;1.77;;;;;;;10.53;58.54;99660.53;4978054;28;20060;-72
2022/04/06 11:14:49;;;;;;;2.53;1.60;;;;;;;10.42;59.22;99650.25;4997448;28;20022;-72
2022/04/06 11:17:32;;;;;;;1.90;1.52;;;;;;;10.53;58.88;99639.38;4991215;28;20098;-70
2022/04/06 11:19:57;;;;;;;5.47;1.90;;;;;;;10.47;60.09;99638.19;4990137;28;20034;-70
2022/04/06 11:22:23;;;;;;;2.03;1.75;;;;;;;10.50;59.95;99645.00;4977043;28;20238;-74
2022/04/06 11:24:48;;;;;;;2.90;2.15;;;;;;;10.49;60.12;99632.75;4987286;28;20805;-70
2022/04/06 11:27:27;;;;;;;2.80;1.90;;;;;;;10.47;60.30;99627.63;4977672;28;20018;-72
2022/04/06 11:30:06;;;;;;;2.25;1.70;;;;;;;10.46;59.87;99631.28;4991539;28;20022;-72
2022/04/06 11:32:32;;;;;;;2.80;1.27;;;;;;;10.49;59.56;99616.88;4982399;28;20003;-72
2022/04/06 11:35:05;;;;;;;3.30;1.67;;;;;;;10.43;60.34;99618.34;4991633;28;20517;-72
2022/04/06 11:37:31;;;;;;;2.93;1.30;;;;;;;10.54;60.17;99625.16;4967199;28;20038;-69
2022/04/06 11:39:59;;;;;;;3.85;1.48;;;;;;;10.60;60.00;99618.38;4984071;28;20833;-72
2022/04/06 11:42:25;;;;;;;2.50;1.50;;;;;;;10.71;59.67;99619.88;4963400;28;20081;-72
2022/04/06 11:44:51;;;;;;;2.97;1.45;;;;;;;10.76;59.16;99618.38;4960504;28;20095;-70